Lady's Island, SC (29907)

8:56 PM EDT on June 23, 2017 (GMT -0400)
Dataw Island | | Change Station
Active Advisory: Coastal Flood Advisory Active Notice: Coastal Flood Advisory

Elev 21 ft 32.44 °N, 80.58 °W | Updated 6 minutes ago

Clear
Clear
81.4 °F
Feels Like 88 °F
N
0.0
Wind Variable Wind from SE
Gusts 3.0 mph

Today
High -- | Low -- °F
--% Chance of Precip.
Yesterday
High -- | Low -- °F
Precip. -- in
Pressure 29.97 in
Visibility 7.0 miles
Clouds Clear
Heat Index 88 °F
Dew Point 75 °F
Humidity 81%
Rainfall 0.00 in
Snow Depth Not available.
6:16 AM 8:33 PM
Waning Crescent, 0% visible
METAR KARW 240055Z AUTO 19011G17KT 7SM CLR 27/23 A2997 RMK AO2
Pressure 29.97 in
Visibility 7.0 miles
Clouds Clear
Heat Index 88 °F
Dew Point 75 °F
Humidity 81%
Rainfall 0.00 in
Snow Depth Not available.
6:16 AM 8:33 PM
Waning Crescent, 0% visible
METAR KARW 240055Z AUTO 19011G17KT 7SM CLR 27/23 A2997 RMK AO2

Get Your Daily Forecast Email!

Thanks for signing up!

Be on the lookout for a verification email in your inbox.

You'll start receiving severe weather alerts in your inbox..

×

10-Day Weather Forecast

Almanac

Astronomy

Jun. 23, 2017 Rise Set
Actual Time
Civil Twilight
Nautical Twilight
Astronomical Twilight
Moon
Length of Visible Light
Length of Day
Tomorrow will be .
, % of the Moon is Illuminated

Today's Extremes

State Highs State Lows

Community

WunderPhotos

Category 6

Welcome to Category 6. This is the collective home for Weather Underground's featured writeups by Dr. Jeff Masters (right), Bob Henson (left), Chris Burt, and other regular contributors.

Nearby

Air Quality

  Air Quality AQ Index Pollutant
Not available.

Snow Depth

Station Depth Elevation

Earthquake Activity

City Distance Mag. Time & Date
Minimum magnitude displayed is 2.5.

Coastal Water Temperatures

Place Temperature

Stations

Nearby Weather Stations

Station Location Temp. Windchill Dew Point Humidity Wind Precip. Elev Updated Type
                   

Watches & Warnings

Coastal Flood Advisory
Issued: 5:40 PM EDT Jun. 23, 2017 – National Weather Service

... Coastal flood advisory in effect until 10 PM EDT this
evening...

The National Weather Service in Charleston has issued a coastal
flood advisory... which is in effect until 10 PM EDT this evening.

* Locations... low-lying coastal areas of southeast South
Carolina... including downtown Charleston.

* Tide levels... high tide is expected to peak between 7.0 and 7.2
feet mean lower low water.

* Timing... high tide will occur around 830 PM at Charleston.
Shallow saltwater flooding will be possible 1 to 2 hours before
and after high tide.

* Coastal flood impacts... inundation of saltwater in and near
low-lying coastal areas could result in some roads becoming
impassable.

Precautionary/preparedness actions...

Be prepared for the possibility of impassable roads. If travel is
necessary... do not attempt to drive through water of unknown
depth.